Time;durP1;ratioP1;P1;durP2;ratioP2;P2;SDS_P1;SDS_P2;PMS_P1;PMS_P2;Temp;Humidity;BMP_temperature;BMP_pressure;BME280_temperature;BME280_humidity;BME280_pressure;Samples;Min_cycle;Max_cycle;Signal;HPM_P1;HPM_P2
2022/05/12 00:02:11;;;;;;;3.03;1.80;;;;;;;;;;5057205;28;20025;-81
2022/05/12 00:04:37;;;;;;;6.53;1.88;;;;;;;;;;5059072;28;20087;-81
2022/05/12 00:07:03;;;;;;;3.35;1.67;;;;;;;;;;5056453;28;20048;-81
2022/05/12 00:09:29;;;;;;;2.67;1.80;;;;;;;;;;5056856;28;20112;-81
2022/05/12 00:11:56;;;;;;;3.65;1.73;;;;;;;;;;5056077;28;20021;-83
2022/05/12 00:14:22;;;;;;;1.88;1.17;;;;;;;;;;5059647;28;20405;-81
2022/05/12 00:16:48;;;;;;;3.33;1.50;;;;;;;;;;5042456;28;20029;-81
2022/05/12 00:19:14;;;;;;;2.03;1.52;;;;;;;;;;5056094;28;20037;-81
2022/05/12 00:21:40;;;;;;;3.35;2.00;;;;;;;;;;5035537;28;20485;-81
2022/05/12 00:24:06;;;;;;;4.05;2.05;;;;;;;;;;5054862;28;20151;-81
2022/05/12 00:26:33;;;;;;;3.08;1.75;;;;;;;;;;5045325;28;20025;-80
2022/05/12 00:28:59;;;;;;;;;;;;;;;;;;5057328;28;20052;-81
2022/05/12 00:31:25;;;;;;;2.67;1.38;;;;;;;;;;5045234;28;19954;-81
2022/05/12 00:33:51;;;;;;;2.65;1.30;;;;;;;;;;5049947;28;20559;-81
2022/05/12 00:36:18;;;;;;;4.07;1.55;;;;;;;;;;5046626;28;20059;-81
2022/05/12 00:38:44;;;;;;;6.47;1.80;;;;;;;;;;5041216;28;20025;-81
2022/05/12 00:41:10;;;;;;;4.78;1.63;;;;;;;;;;5049839;28;20637;-82
2022/05/12 00:43:45;;;;;;;4.50;1.50;;;;;;;;;;5043553;28;20033;-81
2022/05/12 00:46:16;;;;;;;3.90;1.73;;;;;;;;;;5049304;28;20067;-80
2022/05/12 00:48:42;;;;;;;2.53;1.58;;;;;;;;;;5032892;28;20040;-81
2022/05/12 00:51:10;;;;;;;6.47;1.98;;;;;;;;;;5043491;28;20464;-81
2022/05/12 00:53:36;;;;;;;3.33;1.67;;;;;;;;;;5049760;28;20025;-81
2022/05/12 00:56:04;;;;;;;6.90;1.55;;;;;;;;;;5053091;28;20029;-81
2022/05/12 00:58:31;;;;;;;4.68;1.67;;;;;;;;;;5047502;28;20478;-80
2022/05/12 01:00:57;;;;;;;2.70;1.50;;;;;;;;;;5050624;28;20388;-81
2022/05/12 01:03:24;;;;;;;3.00;1.35;;;;;;;;;;5040968;28;20044;-80
2022/05/12 01:05:50;;;;;;;1.75;1.08;;;;;;;;;;5054855;28;20107;-81
2022/05/12 01:08:18;;;;;;;2.75;1.90;;;;;;;;;;5046689;28;20041;-81
2022/05/12 01:10:50;;;;;;;2.53;1.30;;;;;;;;;;5046608;28;20121;-81
2022/05/12 01:13:17;;;;;;;5.95;1.65;;;;;;;;;;5035943;28;20021;-82
2022/05/12 01:15:54;;;;;;;2.03;1.17;;;;;;;;;;5045511;28;20120;-81
2022/05/12 01:18:20;;;;;;;1.83;1.30;;;;;;;;;;5042098;28;20116;-81
2022/05/12 01:20:47;;;;;;;2.95;1.60;;;;;;;;;;5054851;28;20025;-80
2022/05/12 01:23:22;;;;;;;4.07;1.80;;;15.10;99.90;;;;;;5044611;28;20045;-82
2022/05/12 01:25:49;;;;;;;2.53;1.35;;;;;;;;;;5057401;28;20063;-81
2022/05/12 01:28:15;;;;;;;1.70;1.25;;;;;;;;;;5049144;28;20041;-81
2022/05/12 01:30:41;;;;;;;2.33;1.33;;;;;;;;;;5031632;28;21476;-81
2022/05/12 01:33:07;;;;;;;3.40;1.65;;;;;;;;;;5037935;28;20187;-81
2022/05/12 01:35:33;;;;;;;8.35;1.25;;;;;;;;;;5043204;28;20539;-81
2022/05/12 01:37:59;;;;;;;4.22;1.42;;;;;;;;;;5044687;28;20119;-82
2022/05/12 01:40:25;;;;;;;10.05;1.23;;;;;;;;;;5051451;28;20037;-81
2022/05/12 01:42:52;;;;;;;3.17;1.52;;;;;;;;;;5057816;28;20024;-81
2022/05/12 01:45:18;;;;;;;3.70;1.40;;;;;;;;;;5048581;28;20029;-81
2022/05/12 01:47:45;;;;;;;3.13;1.45;;;;;;;;;;5053571;28;20029;-82
2022/05/12 01:50:11;;;;;;;6.45;1.40;;;;;;;;;;5047322;28;20030;-81
2022/05/12 01:52:39;;;;;;;5.82;1.42;;;;;;;;;;5043459;28;20681;-81
2022/05/12 01:55:05;;;;;;;2.00;1.25;;;;;;;;;;5040565;28;20038;-82
2022/05/12 01:57:31;;;;;;;2.33;1.40;;;;;;;;;;5043157;28;20035;-81
2022/05/12 01:59:57;;;;;;;2.88;1.30;;;;;;;;;;5047283;28;20033;-81
2022/05/12 02:02:23;;;;;;;3.60;1.52;;;;;;;;;;5046936;28;20289;-81
2022/05/12 02:04:49;;;;;;;1.75;1.13;;;;;;;;;;5050562;28;20489;-81
2022/05/12 02:07:15;;;;;;;1.60;0.93;;;;;;;;;;5040141;28;20128;-82
2022/05/12 02:09:41;;;;;;;1.65;1.05;;;14.30;99.90;;;;;;5056699;28;20112;-81
2022/05/12 02:12:08;;;;;;;3.30;1.35;;;;;;;;;;5043326;28;20482;-82
2022/05/12 02:14:34;;;;;;;4.40;1.25;;;;;;;;;;5036218;28;20067;-82
2022/05/12 02:17:00;;;;;;;3.20;1.40;;;;;;;;;;5043957;28;22260;-80
2022/05/12 02:19:27;;;;;;;6.20;1.75;;;;;;;;;;5036344;28;20024;-81
2022/05/12 02:21:54;;;;;;;1.88;1.10;;;;;;;;;;5052379;28;20040;-81
2022/05/12 02:24:20;;;;;;;2.42;1.23;;;;;;;;;;5046021;28;20029;-81
2022/05/12 02:26:47;;;;;;;3.67;1.58;;;;;;;;;;5038003;28;20037;-82
2022/05/12 02:29:13;;;;;;;4.35;1.85;;;;;;;;;;5044007;28;20087;-80
2022/05/12 02:31:39;;;;;;;2.40;1.52;;;;;;;;;;5041209;28;20069;-81
2022/05/12 02:34:05;;;;;;;3.20;1.30;;;;;;;;;;5046282;28;20039;-82
2022/05/12 02:36:31;;;;;;;3.05;1.58;;;;;;;;;;5041718;28;20043;-82
2022/05/12 02:38:57;;;;;;;3.10;1.67;;;;;;;;;;5044391;28;20030;-81
2022/05/12 02:41:23;;;;;;;2.67;1.65;;;;;;;;;;5050895;28;20056;-81
2022/05/12 02:43:49;;;;;;;3.33;1.40;;;;;;;;;;5050821;28;20082;-83
2022/05/12 02:46:16;;;;;;;3.13;1.73;;;;;;;;;;5041339;28;20166;-81
2022/05/12 02:48:45;;;;;;;3.53;1.50;;;13.90;99.90;;;;;;5044371;28;20093;-80
2022/05/12 02:51:11;;;;;;;2.90;1.20;;;;;;;;;;5043194;28;20028;-80
2022/05/12 02:53:37;;;;;;;3.20;1.58;;;;;;;;;;5054997;28;20034;-81
2022/05/12 02:56:04;;;;;;;4.53;1.73;;;13.80;99.90;;;;;;5048656;28;20033;-80
2022/05/12 02:58:31;;;;;;;2.55;1.60;;;;;;;;;;5053345;28;20028;-81
2022/05/12 03:00:57;;;;;;;3.53;1.63;;;;;;;;;;5047582;28;20056;-81
2022/05/12 03:03:23;;;;;;;4.85;1.45;;;;;;;;;;5044250;28;20099;-81
2022/05/12 03:05:51;;;;;;;2.78;2.00;;;;;;;;;;5043480;28;20021;-82
2022/05/12 03:08:17;;;;;;;2.30;1.50;;;;;;;;;;5043596;28;20036;-81
2022/05/12 03:10:43;;;;;;;4.63;1.40;;;;;;;;;;5047507;28;20113;-81
2022/05/12 03:13:09;;;;;;;3.42;1.75;;;;;;;;;;5056028;28;20056;-80
2022/05/12 03:15:35;;;;;;;2.95;2.10;;;;;;;;;;5045321;28;20028;-80
2022/05/12 03:18:01;;;;;;;2.80;1.33;;;;;;;;;;5053258;28;20104;-82
2022/05/12 03:20:27;;;;;;;2.67;1.77;;;;;;;;;;5053657;28;20044;-80
2022/05/12 03:22:53;;;;;;;3.25;1.70;;;;;;;;;;5049592;28;20052;-81
2022/05/12 03:25:20;;;;;;;4.78;1.65;;;;;;;;;;5038108;28;20029;-81
2022/05/12 03:27:46;;;;;;;2.45;1.17;;;;;;;;;;5053185;28;20507;-81
2022/05/12 03:30:14;;;;;;;2.75;1.30;;;;;;;;;;5051390;28;20057;-81
2022/05/12 03:32:40;;;;;;;7.15;1.85;;;;;;;;;;5054902;28;20049;-81
2022/05/12 03:35:07;;;;;;;12.57;2.17;;;;;;;;;;5063049;28;20029;-81
2022/05/12 03:37:33;;;;;;;3.40;1.95;;;;;;;;;;5049901;28;20029;-81
2022/05/12 03:39:59;;;;;;;5.18;1.90;;;;;;;;;;5054259;28;20031;-81
2022/05/12 03:42:25;;;;;;;3.53;1.40;;;;;;;;;;5057458;28;20230;-81
2022/05/12 03:44:54;;;;;;;3.05;1.45;;;;;;;;;;5058761;28;20111;-81
2022/05/12 03:47:27;;;;;;;3.03;1.60;;;;;;;;;;5049813;28;20041;-81
2022/05/12 03:49:55;;;;;;;2.25;1.67;;;;;;;;;;5061079;28;20115;-81
2022/05/12 03:52:21;;;;;;;2.03;1.33;;;;;;;;;;5052026;28;20432;-80
2022/05/12 03:54:48;;;;;;;3.30;1.85;;;;;;;;;;5061590;28;20032;-81
2022/05/12 03:57:15;;;;;;;3.67;1.67;;;;;;;;;;5059919;28;20053;-80
2022/05/12 03:59:41;;;;;;;2.88;1.42;;;;;;;;;;5057880;28;20036;-81
2022/05/12 04:02:13;;;;;;;2.30;1.20;;;;;;;;;;5052376;28;20033;-81
2022/05/12 04:04:42;;;;;;;3.53;1.40;;;;;;;;;;5053541;28;20029;-81
2022/05/12 04:07:09;;;;;;;2.28;1.00;;;;;;;;;;5056587;28;20048;-82
2022/05/12 04:09:35;;;;;;;2.33;1.27;;;;;;;;;;5059813;28;20035;-81
2022/05/12 04:12:02;;;;;;;3.13;1.17;;;;;;;;;;5053640;28;20408;-81
2022/05/12 04:14:28;;;;;;;2.17;1.27;;;;;;;;;;5054615;28;20409;-81
2022/05/12 04:16:54;;;;;;;1.53;0.90;;;;;;;;;;5047936;28;20421;-81
2022/05/12 04:19:20;;;;;;;2.90;1.30;;;;;;;;;;5057615;28;20418;-80
2022/05/12 04:21:46;;;;;;;1.67;1.00;;;;;;;;;;5049452;28;20402;-82
2022/05/12 04:24:12;;;;;;;1.73;0.80;;;;;;;;;;5053426;28;20409;-81
2022/05/12 04:26:40;;;;;;;3.50;1.10;;;;;;;;;;5046847;28;20393;-82
2022/05/12 04:29:07;;;;;;;3.28;1.05;;;;;;;;;;5051547;28;20421;-82
2022/05/12 04:31:33;;;;;;;2.53;0.90;;;;;;;;;;5039878;28;20409;-82
2022/05/12 04:36:43;;;;;;;2.97;1.08;;;;;;;;;;5047800;28;20401;-82
2022/05/12 04:39:10;;;;;;;1.25;0.63;;;;;;;;;;5030733;28;20802;-82
2022/05/12 04:41:36;;;;;;;1.35;0.68;;;;;;;;;;5045807;28;20717;-82
2022/05/12 04:44:05;;;;;;;2.60;0.63;;;;;;;;;;5053737;28;20972;-82
2022/05/12 04:46:31;;;;;;;1.67;0.93;;;;;;;;;;5049897;28;20044;-78
2022/05/12 04:48:57;;;;;;;2.58;0.93;;;;;;;;;;5047158;28;20057;-81
2022/05/12 04:51:23;;;;;;;1.30;0.60;;;;;;;;;;5050140;28;20048;-82
2022/05/12 04:53:49;;;;;;;2.70;0.90;;;;;;;;;;5046544;28;20052;-82
2022/05/12 04:56:15;;;;;;;1.75;0.82;;;;;;;;;;5055438;28;20025;-81
2022/05/12 04:58:41;;;;;;;;;;;;;;;;;;5049596;28;20457;-81
2022/05/12 05:01:07;;;;;;;;;;;;;;;;;;5049973;28;19963;-81
2022/05/12 05:03:33;;;;;;;;;;;;;;;;;;5048788;28;20356;-83
2022/05/12 05:05:59;;;;;;;;;;;;;;;;;;5059598;28;19916;-83
2022/05/12 05:08:25;;;;;;;;;;;;;;;;;;5054698;28;19942;-82
2022/05/12 05:10:51;;;;;;;;;;;;;;;;;;5045582;28;20193;-81
2022/05/12 05:13:20;;;;;;;;;;;;;;;;;;5048995;28;19917;-82
2022/05/12 05:15:46;;;;;;;;;;;;;;;;;;5055832;28;20377;-83
2022/05/12 05:18:12;;;;;;;;;;;;;;;;;;5040214;28;19959;-83
2022/05/12 05:20:38;;;;;;;;;;;;;;;;;;5046753;28;19909;-82
2022/05/12 05:23:03;;;;;;;;;;;;;;;;;;5051787;28;19935;-82
2022/05/12 05:25:31;;;;;;;;;;;;;;;;;;5048224;28;20559;-82
2022/05/12 05:27:57;;;;;;;;;;;;;;;;;;5056575;28;19926;-81
2022/05/12 05:30:30;;;;;;;;;;;;;;;;;;5062325;28;19931;-82
2022/05/12 05:32:56;;;;;;;;;;;;;;;;;;5066164;28;19996;-81
2022/05/12 05:35:21;;;;;;;;;;;;;;;;;;5061757;28;19912;-81
2022/05/12 05:37:48;;;;;;;;;;;;;;;;;;5064943;28;19964;-82
2022/05/12 05:40:15;;;;;;;;;;;18.10;99.90;;;;;;5062578;28;19908;-82
2022/05/12 05:42:41;;;;;;;;;;;;;;;;;;5057651;28;19916;-78
2022/05/12 05:45:10;;;;;;;;;;;;;;;;;;5062107;28;19940;-81
2022/05/12 05:47:36;;;;;;;;;;;;;;;;;;5059546;28;19924;-82
2022/05/12 05:50:02;;;;;;;;;;;;;;;;;;5064335;28;20019;-81
2022/05/12 05:55:13;;;;;;;;;;;;;;;;;;5057634;28;19932;-82
2022/05/12 05:57:39;;;;;;;;;;;;;;;;;;5055079;28;19917;-81
2022/05/12 06:00:05;;;;;;;;;;;;;;;;;;5058800;28;20192;-82
2022/05/12 06:02:31;;;;;;;;;;;18.20;99.90;;;;;;5054421;28;19916;-81
2022/05/12 06:04:57;;;;;;;;;;;;;;;;;;5052606;28;19917;-82
2022/05/12 06:07:22;;;;;;;;;;;18.10;99.90;;;;;;5054916;28;19920;-82
2022/05/12 06:09:48;;;;;;;;;;;;;;;;;;5056015;28;20008;-82
2022/05/12 06:12:14;;;;;;;;;;;;;;;;;;5051608;28;19915;-82
2022/05/12 06:14:40;;;;;;;;;;;;;;;;;;5058579;28;19916;-78
2022/05/12 06:17:06;;;;;;;;;;;;;;;;;;5049685;28;19909;-81
2022/05/12 06:19:32;;;;;;;;;;;;;;;;;;5058198;28;19948;-81
2022/05/12 06:21:58;;;;;;;;;;;;;;;;;;5056316;28;19970;-80
2022/05/12 06:24:24;;;;;;;;;;;;;;;;;;5054768;28;19913;-81
2022/05/12 06:26:51;;;;;;;;;;;;;;;;;;5054407;28;19959;-81
2022/05/12 06:29:17;;;;;;;;;;;20.30;99.90;;;;;;5059797;28;19929;-81
2022/05/12 06:31:43;;;;;;;;;;;;;;;;;;5059780;28;19908;-80
2022/05/12 06:34:09;;;;;;;;;;;;;;;;;;5058194;28;19908;-81
2022/05/12 06:36:35;;;;;;;;;;;;;;;;;;5058191;28;19916;-82
2022/05/12 06:39:01;;;;;;;4.22;1.27;;;;;;;;;;5056097;28;19909;-81
2022/05/12 06:41:27;;;;;;;1.70;0.80;;;;;;;;;;5050937;28;20451;-80
2022/05/12 06:43:53;;;;;;;1.63;0.50;;;;;;;;;;5048184;28;20477;-81
2022/05/12 06:46:20;;;;;;;0.80;0.30;;;;;;;;;;5054334;28;20417;-81
2022/05/12 06:48:47;;;;;;;0.93;0.30;;;;;;;;;;5052916;28;20052;-81
2022/05/12 06:51:13;;;;;;;6.95;0.65;;;;;;;;;;5046925;28;20502;-82
2022/05/12 06:53:39;;;;;;;0.77;0.40;;;;;;;;;;5050611;28;21054;-82
2022/05/12 06:56:07;;;;;;;0.93;0.45;;;;;;;;;;5048431;28;20040;-81
2022/05/12 06:58:33;;;;;;;0.93;0.38;;;;;;;;;;5050382;28;20041;-82
2022/05/12 07:01:00;;;;;;;0.73;0.38;;;;;;;;;;5048205;28;20036;-80
2022/05/12 07:03:26;;;;;;;2.38;0.77;;;;;;;;;;5050023;28;20059;-82
2022/05/12 07:05:52;;;;;;;0.40;0.40;;;;;;;;;;5051559;28;20044;-81
2022/05/12 07:08:18;;;;;;;1.38;0.30;;;;;;;;;;5051836;28;20037;-82
2022/05/12 07:10:44;;;;;;;0.93;0.40;;;;;;;;;;5045788;28;20093;-81
2022/05/12 07:13:12;;;;;;;0.85;0.55;;;;;;;;;;5052310;28;20033;-82
2022/05/12 07:15:38;;;;;;;2.55;0.40;;;;;;;;;;5051426;28;20036;-82
2022/05/12 07:18:04;;;;;;;1.48;0.43;;;;;;;;;;5056716;28;20053;-82
2022/05/12 07:28:45;;;;;;;1.98;0.43;;;;;;;;;;5049648;28;20055;-81
2022/05/12 07:31:11;;;;;;;3.25;0.73;;;;;;;;;;5050383;28;20035;-81
2022/05/12 07:33:39;;;;;;;1.35;0.45;;;;;;;;;;5052637;28;20052;-82
2022/05/12 07:36:09;;;;;;;1.00;0.55;;;21.60;97.90;;;;;;5053856;28;20052;-81
2022/05/12 07:38:36;;;;;;;2.08;0.35;;;;;;;;;;5044664;28;20060;-81
2022/05/12 07:41:02;;;;;;;0.77;0.22;;;;;;;;;;5055436;28;20092;-80
2022/05/12 07:43:28;;;;;;;1.02;0.40;;;;;;;;;;5054385;28;20595;-79
2022/05/12 07:45:54;;;;;;;2.65;0.80;;;;;;;;;;5051487;28;20036;-81
2022/05/12 07:48:20;;;;;;;1.75;0.45;;;;;;;;;;5051146;28;20513;-82
2022/05/12 07:50:46;;;;;;;0.80;0.30;;;;;;;;;;5057204;28;20035;-82
2022/05/12 07:53:12;;;;;;;2.28;0.32;;;;;;;;;;5054924;28;20036;-81
2022/05/12 07:55:38;;;;;;;3.30;0.30;;;;;;;;;;5054216;28;20064;-82
2022/05/12 07:58:05;;;;;;;1.98;1.30;;;;;;;;;;5052837;28;20036;-81
2022/05/12 08:00:32;;;;;;;1.95;0.40;;;;;;;;;;5055724;28;20082;-80
2022/05/12 08:02:58;;;;;;;2.38;0.50;;;;;;;;;;5048697;28;20033;-80
2022/05/12 08:05:25;;;;;;;0.65;0.28;;;;;;;;;;5048841;28;20112;-81
2022/05/12 08:07:51;;;;;;;1.55;0.70;;;;;;;;;;5054865;28;20077;-81
2022/05/12 08:10:17;;;;;;;0.85;0.40;;;;;;;;;;5056419;28;20033;-82
2022/05/12 08:12:43;;;;;;;3.20;0.30;;;;;;;;;;5058379;28;20067;-82
2022/05/12 08:15:10;;;;;;;4.57;0.40;;;;;;;;;;5060359;28;20029;-81
2022/05/12 08:17:37;;;;;;;2.17;0.40;;;;;;;;;;5044852;28;20050;-81
2022/05/12 08:20:05;;;;;;;0.90;0.40;;;;;;;;;;5057299;28;20091;-81
2022/05/12 08:22:31;;;;;;;2.47;0.30;;;;;;;;;;5060454;28;20025;-80
2022/05/12 08:24:57;;;;;;;1.90;0.32;;;;;;;;;;5058481;28;20110;-82
2022/05/12 08:27:24;;;;;;;1.73;0.30;;;;;;;;;;5063340;28;20028;-81
2022/05/12 08:29:51;;;;;;;0.52;0.30;;;;;;;;;;5058864;28;20029;-80
2022/05/12 08:32:17;;;;;;;0.77;0.32;;;;;;;;;;5064228;28;20051;-80
2022/05/12 08:34:44;;;;;;;1.33;0.60;;;;;;;;;;5052114;28;20029;-81
2022/05/12 08:37:12;;;;;;;0.93;0.40;;;;;;;;;;5052252;28;20021;-81
2022/05/12 08:39:38;;;;;;;0.50;0.25;;;;;;;;;;5053355;28;20029;-79
2022/05/12 08:42:19;;;;;;;2.00;0.63;;;;;;;;;;5058364;28;20040;-81
2022/05/12 08:44:45;;;;;;;1.23;0.38;;;;;;;;;;5059523;28;20033;-81
2022/05/12 08:47:14;;;;;;;0.95;0.50;;;24.10;94.30;;;;;;5060043;28;20040;-79
2022/05/12 08:49:47;;;;;;;0.65;0.30;;;24.50;91.90;;;;;;5053090;28;20056;-80
2022/05/12 08:52:13;;;;;;;;;;;;;;;;;;5052563;28;20052;-81
2022/05/12 08:54:40;;;;;;;4.47;0.32;;;;;;;;;;5051268;28;19929;-82
2022/05/12 08:57:08;;;;;;;0.40;0.30;;;;;;;;;;5049999;28;20017;-80
2022/05/12 08:59:35;;;;;;;0.70;0.40;;;;;;;;;;5053338;28;20415;-80
2022/05/12 09:02:07;;;;;;;1.25;0.40;;;;;;;;;;5051214;28;20546;-81
2022/05/12 09:04:39;;;;;;;0.40;0.30;;;;;;;;;;5050099;28;20040;-80
2022/05/12 09:07:08;;;;;;;1.38;0.60;;;;;;;;;;5048357;28;20056;-81
2022/05/12 09:09:45;;;;;;;1.25;0.20;;;;;;;;;;5053550;28;20405;-80
2022/05/12 09:12:30;;;;;;;1.27;0.50;;;;;;;;;;5049698;28;20386;-82
2022/05/12 09:15:02;;;;;;;1.63;0.68;;;;;;;;;;5055477;28;20040;-81
2022/05/12 09:17:40;;;;;;;0.60;0.30;;;;;;;;;;5050068;28;20017;-81
2022/05/12 09:20:09;;;;;;;7.43;1.88;;;;;;;;;;5055807;28;20111;-81
2022/05/12 09:22:35;;;;;;;1.48;0.40;;;;;;;;;;5056515;28;20032;-80
2022/05/12 09:25:01;;;;;;;2.00;0.57;;;;;;;;;;5052560;28;20029;-81
2022/05/12 09:27:30;;;;;;;3.45;0.45;;;;;;;;;;5054914;28;22151;-81
2022/05/12 09:29:56;;;;;;;0.57;0.30;;;;;;;;;;5056311;28;20021;-80
2022/05/12 09:32:25;;;;;;;3.30;0.30;;;;;;;;;;5046246;28;20033;-80
2022/05/12 09:35:06;;;;;;;4.05;0.50;;;;;;;;;;5058076;28;20029;-82
2022/05/12 09:37:32;;;;;;;4.75;0.60;;;;;;;;;;5047005;28;20049;-81
2022/05/12 09:40:13;;;;;;;1.40;0.40;;;;;;;;;;5052916;28;20025;-81
2022/05/12 09:42:41;;;;;;;0.38;0.32;;;;;;;;;;5052694;28;20306;-81
2022/05/12 09:45:15;;;;;;;0.80;0.30;;;22.20;93.70;;;;;;5056955;28;20056;-81
2022/05/12 09:47:41;;;;;;;2.25;0.25;;;;;;;;;;5050532;28;20036;-81
2022/05/12 09:50:19;;;;;;;0.47;0.45;;;23.20;94.70;;;;;;5050740;28;20037;-81
2022/05/12 09:52:54;;;;;;;0.35;0.20;;;;;;;;;;5052958;28;20040;-81
2022/05/12 09:55:30;;;;;;;6.15;0.50;;;;;;;;;;5049757;28;20025;-81
2022/05/12 09:58:01;;;;;;;0.63;0.40;;;;;;;;;;5054078;28;20029;-82
2022/05/12 10:00:50;;;;;;;0.60;0.20;;;23.00;93.30;;;;;;5058970;28;20036;-81
2022/05/12 10:09:01;;;;;;;0.52;0.40;;;;;;;;;;5048888;28;20060;-82
2022/05/12 10:11:28;;;;;;;0.90;0.32;;;;;;;;;;5056464;28;20025;-81
2022/05/12 10:13:55;;;;;;;1.52;0.93;;;;;;;;;;5054253;28;20033;-81
2022/05/12 10:16:26;;;;;;;0.50;0.35;;;;;;;;;;5051094;28;20538;-82
2022/05/12 10:18:57;;;;;;;0.45;0.22;;;22.30;93.30;;;;;;5050723;28;20025;-81
2022/05/12 10:21:44;;;;;;;2.17;0.40;;;;;;;;;;5053175;28;20056;-81
2022/05/12 10:24:29;;;;;;;0.70;0.32;;;;;;;;;;5055052;28;20044;-82
2022/05/12 10:26:57;;;;;;;1.77;0.65;;;;;;;;;;5052768;28;20024;-81
2022/05/12 10:29:58;;;;;;;0.60;0.50;;;;;;;;;;5053356;28;20041;-81
2022/05/12 10:32:43;;;;;;;0.68;0.20;;;;;;;;;;4975245;28;20035;-81
2022/05/12 10:35:22;;;;;;;2.30;0.40;;;;;;;;;;5047090;28;20100;-81
2022/05/12 10:37:48;;;;;;;1.25;0.40;;;;;;;;;;5049217;28;20025;-81
2022/05/12 10:40:33;;;;;;;7.05;0.77;;;;;;;;;;5053033;28;20025;-80
2022/05/12 10:43:14;;;;;;;1.55;0.45;;;;;;;;;;5046897;28;20040;-81
2022/05/12 10:45:39;;;;;;;0.47;0.38;;;;;;;;;;5050659;28;20033;-81
2022/05/12 10:48:15;;;;;;;0.50;0.47;;;;;;;;;;5055154;28;20077;-82
2022/05/12 10:50:41;;;;;;;1.30;0.40;;;;;;;;;;5048406;28;20396;-81
2022/05/12 10:53:35;;;;;;;0.50;0.28;;;24.00;89.70;;;;;;5048994;28;20047;-81
2022/05/12 10:56:20;;;;;;;0.73;0.32;;;;;;;;;;5052118;28;20038;-82
2022/05/12 10:58:51;;;;;;;4.45;0.77;;;;;;;;;;5049651;28;20037;-81
2022/05/12 11:02:08;;;;;;;2.40;0.38;;;;;;;;;;5059262;28;20114;-80
2022/05/12 11:05:04;;;;;;;3.65;1.52;;;;;;;;;;5041572;28;20037;-81
2022/05/12 11:07:34;;;;;;;1.00;0.30;;;;;;;;;;5057522;28;20094;-81
2022/05/12 11:10:31;;;;;;;0.40;0.20;;;;;;;;;;5059604;28;20096;-81
2022/05/12 11:13:13;;;;;;;0.95;0.50;;;;;;;;;;5054414;28;20071;-81
2022/05/12 11:15:53;;;;;;;0.40;0.10;;;;;;;;;;5058274;28;20095;-79
2022/05/12 11:18:43;;;;;;;1.00;0.63;;;;;;;;;;5052894;28;20029;-80
2022/05/12 11:21:32;;;;;;;2.15;0.50;;;;;;;;;;5054527;28;20040;-82
2022/05/12 11:24:24;;;;;;;3.90;0.50;;;;;;;;;;5057173;28;20075;-80
2022/05/12 11:27:03;;;;;;;2.75;0.38;;;;;;;;;;5053792;28;20033;-81
2022/05/12 11:29:51;;;;;;;2.45;0.57;;;;;;;;;;5062095;28;20041;-81
2022/05/12 11:32:26;;;;;;;5.25;0.40;;;;;;;;;;5058075;28;20047;-80
2022/05/12 11:35:13;;;;;;;0.68;0.22;;;;;;;;;;5069489;28;20028;-81
2022/05/12 11:37:38;;;;;;;1.73;0.80;;;;;;;;;;5057711;28;20039;-79
2022/05/12 11:40:09;;;;;;;1.30;0.30;;;;;;;;;;5061121;28;20143;-78
2022/05/12 11:45:42;;;;;;;2.15;0.60;;;;;;;;;;5062013;28;20040;-81
2022/05/12 11:48:11;;;;;;;0.75;0.40;;;;;;;;;;5060570;28;20141;-79
2022/05/12 11:50:43;;;;;;;1.42;0.60;;;;;;;;;;5058327;28;20106;-81
2022/05/12 11:53:18;;;;;;;0.85;0.25;;;;;;;;;;5059755;28;20052;-81
2022/05/12 11:55:57;;;;;;;2.20;0.43;;;;;;;;;;5060512;28;20033;-81
2022/05/12 11:58:31;;;;;;;1.25;0.50;;;;;;;;;;5058015;28;20089;-80
2022/05/12 12:00:59;;;;;;;1.45;0.40;;;;;;;;;;5062650;28;20305;-81
2022/05/12 12:03:24;;;;;;;2.08;0.32;;;;;;;;;;5061614;28;20021;-79
2022/05/12 12:05:50;;;;;;;0.93;0.25;;;;;;;;;;5060045;28;20043;-81
2022/05/12 12:08:32;;;;;;;0.98;0.73;;;;;;;;;;5066313;28;20281;-80
2022/05/12 12:11:13;;;;;;;4.22;0.55;;;;;;;;;;5056433;28;20071;-81
2022/05/12 12:13:44;;;;;;;8.15;0.50;;;;;;;;;;5051009;28;20029;-80
2022/05/12 12:16:12;;;;;;;1.25;0.30;;;;;;;;;;5045002;28;20111;-79
2022/05/12 12:18:38;;;;;;;0.75;0.38;;;;;;;;;;5046697;28;20402;-80
2022/05/12 12:21:23;;;;;;;2.67;0.73;;;;;;;;;;5059062;28;20032;-80
2022/05/12 12:24:03;;;;;;;0.50;0.28;;;;;;;;;;5055984;28;20036;-81
2022/05/12 12:26:37;;;;;;;1.13;0.30;;;;;;;;;;5058245;28;20036;-80
2022/05/12 12:29:15;;;;;;;1.20;0.30;;;;;;;;;;5058476;28;20037;-80
2022/05/12 12:31:45;;;;;;;1.17;0.52;;;;;;;;;;5048864;28;20037;-81
2022/05/12 12:34:26;;;;;;;1.42;0.30;;;26.10;77.20;;;;;;5052880;28;20254;-81
2022/05/12 12:37:00;;;;;;;7.38;0.98;;;26.00;75.40;;;;;;5057994;28;20063;-79
2022/05/12 12:39:58;;;;;;;0.68;0.30;;;;;;;;;;5057026;28;20088;-80
2022/05/12 12:42:30;;;;;;;1.15;0.68;;;;;;;;;;5004953;28;20041;-80
2022/05/12 12:44:58;;;;;;;0.68;0.28;;;;;;;;;;5058818;28;20033;-83
2022/05/12 12:47:41;;;;;;;0.93;0.30;;;;;;;;;;5051647;28;20378;-81
2022/05/12 12:50:22;;;;;;;3.63;0.50;;;;;;;;;;5058405;28;20041;-81
2022/05/12 12:52:50;;;;;;;3.75;0.47;;;;;;;;;;5060134;28;20064;-81
2022/05/12 12:58:25;;;;;;;1.63;0.50;;;;;;;;;;5053392;28;20066;-79
2022/05/12 13:00:56;;;;;;;0.20;0.20;;;;;;;;;;5053646;28;20052;-80
2022/05/12 13:03:22;;;;;;;0.47;0.28;;;;;;;;;;5056470;28;20101;-80
2022/05/12 13:05:49;;;;;;;3.20;0.40;;;;;;;;;;5057704;28;20093;-81
2022/05/12 13:08:27;;;;;;;0.98;0.30;;;;;;;;;;5054190;28;20584;-82
2022/05/12 13:10:58;;;;;;;0.63;0.20;;;;;;;;;;5056959;28;20036;-81
2022/05/12 13:13:24;;;;;;;1.95;0.50;;;;;;;;;;5049465;28;20032;-80
2022/05/12 13:16:03;;;;;;;0.80;0.43;;;24.80;79.90;;;;;;5057922;28;20903;-81
2022/05/12 13:18:31;;;;;;;0.57;0.32;;;;;;;;;;5051299;28;20047;-81
2022/05/12 13:20:57;;;;;;;0.68;0.30;;;;;;;;;;5056766;28;20029;-81
2022/05/12 13:23:29;;;;;;;1.98;0.40;;;24.60;78.20;;;;;;5058073;28;20039;-81
2022/05/12 13:25:56;;;;;;;0.38;0.20;;;;;;;;;;5057951;28;20042;-80
2022/05/12 13:28:29;;;;;;;0.55;0.30;;;;;;;;;;5055991;28;20432;-79
2022/05/12 13:31:13;;;;;;;0.80;0.40;;;;;;;;;;5054507;28;20025;-81
2022/05/12 13:33:53;;;;;;;1.50;0.70;;;;;;;;;;5056859;28;20171;-81
2022/05/12 13:36:23;;;;;;;1.73;0.50;;;;;;;;;;5055663;28;20025;-80
2022/05/12 13:38:49;;;;;;;0.65;0.30;;;;;;;;;;5058968;28;20081;-80
2022/05/12 13:41:26;;;;;;;0.63;0.22;;;;;;;;;;5055300;28;20021;-81
2022/05/12 13:43:53;;;;;;;0.75;0.32;;;;;;;;;;5053948;28;20650;-81
2022/05/12 13:46:19;;;;;;;2.33;0.30;;;;;;;;;;5055130;28;20043;-81
2022/05/12 13:48:54;;;;;;;1.50;0.60;;;;;;;;;;5057290;28;20361;-81
2022/05/12 13:51:41;;;;;;;1.08;0.73;;;24.80;73.00;;;;;;5056810;28;20048;-80
2022/05/12 13:54:08;;;;;;;0.50;0.30;;;;;;;;;;5057025;28;20033;-80
2022/05/12 13:56:36;;;;;;;1.40;0.30;;;;;;;;;;5059362;28;20550;-81
2022/05/12 13:59:13;;;;;;;1.15;0.70;;;;;;;;;;5051708;28;20108;-81
2022/05/12 14:01:40;;;;;;;0.40;0.38;;;;;;;;;;5055718;28;20040;-79
2022/05/12 14:04:05;;;;;;;1.77;0.60;;;;;;;;;;5051293;28;20063;-80
2022/05/12 14:06:32;;;;;;;2.05;0.50;;;;;;;;;;5054804;28;20112;-81
2022/05/12 14:09:13;;;;;;;0.55;0.10;;;;;;;;;;5059277;28;20067;-80
2022/05/12 14:11:39;;;;;;;1.48;0.30;;;;;;;;;;5058634;28;20647;-82
2022/05/12 14:19:37;;;;;;;2.50;0.40;;;;;;;;;;5057785;28;20044;-81
2022/05/12 14:22:13;;;;;;;4.50;0.50;;;;;;;;;;5056571;28;20282;-81
2022/05/12 14:24:42;;;;;;;0.80;0.25;;;;;;;;;;5043451;28;20146;-80
2022/05/12 14:27:10;;;;;;;0.57;0.20;;;;;;;;;;5050583;28;20048;-80
2022/05/12 14:29:36;;;;;;;3.17;0.60;;;;;;;;;;5032255;28;20036;-81
2022/05/12 14:32:02;;;;;;;3.42;0.38;;;;;;;;;;5048359;28;20045;-81
2022/05/12 14:34:28;;;;;;;0.90;0.40;;;;;;;;;;5047358;28;20056;-80
2022/05/12 14:37:00;;;;;;;0.40;0.22;;;;;;;;;;5040892;28;20021;-81
2022/05/12 14:39:27;;;;;;;1.00;0.30;;;;;;;;;;5047774;28;20049;-81
2022/05/12 14:41:53;;;;;;;3.88;0.52;;;;;;;;;;5036307;28;20283;-79
2022/05/12 14:44:19;;;;;;;0.30;0.20;;;;;;;;;;5047208;28;20034;-79
2022/05/12 14:46:46;;;;;;;0.30;0.10;;;;;;;;;;5049800;28;20016;-79
2022/05/12 14:49:14;;;;;;;1.67;0.35;;;;;;;;;;5054468;28;20505;-80
2022/05/12 14:51:40;;;;;;;0.82;0.32;;;;;;;;;;5058028;28;20026;-80
2022/05/12 14:54:07;;;;;;;2.10;0.63;;;;;;;;;;5046923;28;20417;-80
2022/05/12 14:56:33;;;;;;;0.60;0.30;;;;;;;;;;5041939;28;20481;-83
2022/05/12 14:59:02;;;;;;;0.20;0.10;;;;;;;;;;5047605;28;20036;-82
2022/05/12 15:01:48;;;;;;;3.08;0.30;;;;;;;;;;5054413;28;20052;-81
2022/05/12 15:04:14;;;;;;;1.75;0.60;;;;;;;;;;5053649;28;20033;-81
2022/05/12 15:06:42;;;;;;;1.40;0.30;;;;;;;;;;5049002;28;20058;-82
2022/05/12 15:09:09;;;;;;;0.90;0.30;;;;;;;;;;5050026;28;20044;-80
2022/05/12 15:11:35;;;;;;;1.45;0.40;;;;;;;;;;5047671;28;20021;-83
2022/05/12 15:14:06;;;;;;;0.57;0.30;;;;;;;;;;5053325;28;20083;-82
2022/05/12 15:16:35;;;;;;;0.55;0.25;;;;;;;;;;5047134;28;20037;-83
2022/05/12 15:19:01;;;;;;;1.75;0.38;;;;;;;;;;5054651;28;20115;-82
2022/05/12 15:21:27;;;;;;;0.25;0.22;;;;;;;;;;5062861;28;20025;-82
2022/05/12 15:23:53;;;;;;;1.58;0.47;;;;;;;;;;5050384;28;20497;-81
2022/05/12 15:26:19;;;;;;;0.95;0.30;;;;;;;;;;5056738;28;20044;-82
2022/05/12 15:28:47;;;;;;;0.93;0.77;;;24.70;78.40;;;;;;5045555;28;20055;-81
2022/05/12 15:31:13;;;;;;;2.53;0.30;;;;;;;;;;5032742;28;20040;-81
2022/05/12 15:33:39;;;;;;;2.00;0.40;;;;;;;;;;5049558;28;20031;-81